sensor_id;sensor_type;location;lat;lon;timestamp;temperature;humidity
4584;DHT22;2304;47.606;12.186;2022-09-27T00:03:22;12.70;83.10
4584;DHT22;2304;47.606;12.186;2022-09-27T00:08:24;12.70;83.10
4584;DHT22;2304;47.606;12.186;2022-09-27T00:13:26;12.60;83.30
4584;DHT22;2304;47.606;12.186;2022-09-27T00:18:29;12.60;84.50
4584;DHT22;2304;47.606;12.186;2022-09-27T00:23:32;12.50;84.70
4584;DHT22;2304;47.606;12.186;2022-09-27T00:28:34;12.50;84.70
4584;DHT22;2304;47.606;12.186;2022-09-27T00:33:37;12.50;84.60
4584;DHT22;2304;47.606;12.186;2022-09-27T00:38:39;12.40;83.60
4584;DHT22;2304;47.606;12.186;2022-09-27T00:43:44;12.40;83.50
4584;DHT22;2304;47.606;12.186;2022-09-27T00:48:48;12.40;82.70
4584;DHT22;2304;47.606;12.186;2022-09-27T00:53:53;12.40;83.40
4584;DHT22;2304;47.606;12.186;2022-09-27T00:59:02;12.30;84.10
4584;DHT22;2304;47.606;12.186;2022-09-27T01:04:10;12.30;84.80
4584;DHT22;2304;47.606;12.186;2022-09-27T01:09:13;12.30;84.50
4584;DHT22;2304;47.606;12.186;2022-09-27T01:14:39;12.30;85.00
4584;DHT22;2304;47.606;12.186;2022-09-27T01:25:42;12.30;85.30
4584;DHT22;2304;47.606;12.186;2022-09-27T01:30:49;12.30;85.60
4584;DHT22;2304;47.606;12.186;2022-09-27T01:36:06;12.20;85.20
4584;DHT22;2304;47.606;12.186;2022-09-27T01:41:18;12.20;84.80
4584;DHT22;2304;47.606;12.186;2022-09-27T01:46:25;12.20;85.10
4584;DHT22;2304;47.606;12.186;2022-09-27T01:51:31;12.10;86.00
4584;DHT22;2304;47.606;12.186;2022-09-27T01:56:42;12.10;86.00
4584;DHT22;2304;47.606;12.186;2022-09-27T02:01:49;12.10;85.50
4584;DHT22;2304;47.606;12.186;2022-09-27T02:06:54;12.10;85.30
4584;DHT22;2304;47.606;12.186;2022-09-27T02:12:02;12.10;84.80
4584;DHT22;2304;47.606;12.186;2022-09-27T02:17:14;12.10;85.30
4584;DHT22;2304;47.606;12.186;2022-09-27T02:22:29;12.10;84.90
4584;DHT22;2304;47.606;12.186;2022-09-27T02:27:34;12.10;85.10
4584;DHT22;2304;47.606;12.186;2022-09-27T02:32:40;12.10;85.00
4584;DHT22;2304;47.606;12.186;2022-09-27T02:37:42;12.10;85.00
4584;DHT22;2304;47.606;12.186;2022-09-27T02:42:45;12.10;86.00
4584;DHT22;2304;47.606;12.186;2022-09-27T02:48:01;12.10;85.70
4584;DHT22;2304;47.606;12.186;2022-09-27T02:53:15;12.20;85.30
4584;DHT22;2304;47.606;12.186;2022-09-27T02:58:25;12.20;85.10
4584;DHT22;2304;47.606;12.186;2022-09-27T03:03:36;12.20;84.80
4584;DHT22;2304;47.606;12.186;2022-09-27T03:08:40;12.10;83.80
4584;DHT22;2304;47.606;12.186;2022-09-27T03:13:42;12.10;83.90
4584;DHT22;2304;47.606;12.186;2022-09-27T03:18:46;12.10;84.40
4584;DHT22;2304;47.606;12.186;2022-09-27T03:23:48;12.20;84.50
4584;DHT22;2304;47.606;12.186;2022-09-27T03:28:50;12.20;84.40
4584;DHT22;2304;47.606;12.186;2022-09-27T03:33:53;12.10;85.00
4584;DHT22;2304;47.606;12.186;2022-09-27T03:38:55;12.10;85.70
4584;DHT22;2304;47.606;12.186;2022-09-27T03:43:57;12.10;85.60
4584;DHT22;2304;47.606;12.186;2022-09-27T03:49:00;12.10;85.00
4584;DHT22;2304;47.606;12.186;2022-09-27T03:54:02;12.20;85.00
4584;DHT22;2304;47.606;12.186;2022-09-27T03:59:04;12.20;85.80
4584;DHT22;2304;47.606;12.186;2022-09-27T04:04:07;12.20;85.90
4584;DHT22;2304;47.606;12.186;2022-09-27T04:09:10;12.20;86.10
4584;DHT22;2304;47.606;12.186;2022-09-27T04:14:11;12.20;86.00
4584;DHT22;2304;47.606;12.186;2022-09-27T04:19:15;12.10;86.30
4584;DHT22;2304;47.606;12.186;2022-09-27T04:24:16;12.10;86.80
4584;DHT22;2304;47.606;12.186;2022-09-27T04:29:18;12.20;87.30
4584;DHT22;2304;47.606;12.186;2022-09-27T04:34:21;11.90;88.00
4584;DHT22;2304;47.606;12.186;2022-09-27T04:39:44;11.80;86.40
4584;DHT22;2304;47.606;12.186;2022-09-27T04:44:46;11.80;85.10
4584;DHT22;2304;47.606;12.186;2022-09-27T04:49:49;11.80;84.50
4584;DHT22;2304;47.606;12.186;2022-09-27T04:54:51;11.70;85.10
4584;DHT22;2304;47.606;12.186;2022-09-27T04:59:53;11.60;85.80
4584;DHT22;2304;47.606;12.186;2022-09-27T05:04:56;11.50;86.50
4584;DHT22;2304;47.606;12.186;2022-09-27T05:09:58;11.60;86.30
4584;DHT22;2304;47.606;12.186;2022-09-27T05:15:00;11.70;85.80
4584;DHT22;2304;47.606;12.186;2022-09-27T05:20:04;11.60;85.10
4584;DHT22;2304;47.606;12.186;2022-09-27T05:25:07;11.60;84.90
4584;DHT22;2304;47.606;12.186;2022-09-27T05:30:10;11.70;85.80
4584;DHT22;2304;47.606;12.186;2022-09-27T05:35:14;11.70;86.60
4584;DHT22;2304;47.606;12.186;2022-09-27T05:40:16;11.70;87.50
4584;DHT22;2304;47.606;12.186;2022-09-27T05:45:19;11.70;86.70
4584;DHT22;2304;47.606;12.186;2022-09-27T05:50:23;11.80;86.00
4584;DHT22;2304;47.606;12.186;2022-09-27T05:55:25;11.80;86.50
4584;DHT22;2304;47.606;12.186;2022-09-27T06:00:27;11.80;86.00
4584;DHT22;2304;47.606;12.186;2022-09-27T06:05:34;11.80;85.50
4584;DHT22;2304;47.606;12.186;2022-09-27T06:10:36;11.70;85.80
4584;DHT22;2304;47.606;12.186;2022-09-27T06:15:40;11.70;87.30
4584;DHT22;2304;47.606;12.186;2022-09-27T06:20:44;11.60;87.00
4584;DHT22;2304;47.606;12.186;2022-09-27T06:25:46;11.70;87.00
4584;DHT22;2304;47.606;12.186;2022-09-27T06:30:49;11.70;87.30
4584;DHT22;2304;47.606;12.186;2022-09-27T06:35:52;11.80;87.00
4584;DHT22;2304;47.606;12.186;2022-09-27T06:40:54;11.80;87.00
4584;DHT22;2304;47.606;12.186;2022-09-27T06:45:58;11.80;86.50
4584;DHT22;2304;47.606;12.186;2022-09-27T06:51:05;11.80;86.10
4584;DHT22;2304;47.606;12.186;2022-09-27T06:56:07;11.80;86.40
4584;DHT22;2304;47.606;12.186;2022-09-27T07:01:09;11.80;85.20
4584;DHT22;2304;47.606;12.186;2022-09-27T07:06:17;11.90;86.10
4584;DHT22;2304;47.606;12.186;2022-09-27T07:11:20;12.00;86.20
4584;DHT22;2304;47.606;12.186;2022-09-27T07:16:22;12.00;85.80
4584;DHT22;2304;47.606;12.186;2022-09-27T07:21:26;12.00;85.80
4584;DHT22;2304;47.606;12.186;2022-09-27T07:26:28;12.00;85.70
4584;DHT22;2304;47.606;12.186;2022-09-27T07:31:29;12.10;86.10
4584;DHT22;2304;47.606;12.186;2022-09-27T07:36:33;12.10;86.20
4584;DHT22;2304;47.606;12.186;2022-09-27T07:41:34;12.10;87.10
4584;DHT22;2304;47.606;12.186;2022-09-27T07:46:38;12.10;86.10
4584;DHT22;2304;47.606;12.186;2022-09-27T07:51:41;12.20;87.40
4584;DHT22;2304;47.606;12.186;2022-09-27T07:56:44;12.20;84.70
4584;DHT22;2304;47.606;12.186;2022-09-27T08:01:46;12.40;85.90
4584;DHT22;2304;47.606;12.186;2022-09-27T08:06:49;12.50;85.70
4584;DHT22;2304;47.606;12.186;2022-09-27T08:11:51;12.80;85.40
4584;DHT22;2304;47.606;12.186;2022-09-27T08:16:57;13.00;84.90
4584;DHT22;2304;47.606;12.186;2022-09-27T08:22:01;13.30;84.20
4584;DHT22;2304;47.606;12.186;2022-09-27T08:27:03;13.30;80.70
4584;DHT22;2304;47.606;12.186;2022-09-27T08:32:05;13.20;79.40
4584;DHT22;2304;47.606;12.186;2022-09-27T08:37:08;13.00;77.10
4584;DHT22;2304;47.606;12.186;2022-09-27T08:42:18;13.00;77.70
4584;DHT22;2304;47.606;12.186;2022-09-27T08:47:27;13.10;80.20
4584;DHT22;2304;47.606;12.186;2022-09-27T08:52:36;13.10;79.50
4584;DHT22;2304;47.606;12.186;2022-09-27T08:57:40;13.20;80.10
4584;DHT22;2304;47.606;12.186;2022-09-27T09:02:42;13.20;78.30
4584;DHT22;2304;47.606;12.186;2022-09-27T09:13:24;13.30;78.10
4584;DHT22;2304;47.606;12.186;2022-09-27T09:18:35;13.30;79.60
4584;DHT22;2304;47.606;12.186;2022-09-27T09:24:18;13.40;80.50
4584;DHT22;2304;47.606;12.186;2022-09-27T09:29:41;13.60;80.30
4584;DHT22;2304;47.606;12.186;2022-09-27T09:34:47;13.70;81.20
4584;DHT22;2304;47.606;12.186;2022-09-27T09:39:56;13.80;81.30
4584;DHT22;2304;47.606;12.186;2022-09-27T09:45:01;13.80;80.10
4584;DHT22;2304;47.606;12.186;2022-09-27T09:50:15;13.80;80.10
4584;DHT22;2304;47.606;12.186;2022-09-27T09:55:22;13.90;80.70
4584;DHT22;2304;47.606;12.186;2022-09-27T10:00:25;13.80;78.30
4584;DHT22;2304;47.606;12.186;2022-09-27T10:05:27;13.90;77.30
4584;DHT22;2304;47.606;12.186;2022-09-27T10:10:31;14.00;75.10
4584;DHT22;2304;47.606;12.186;2022-09-27T10:15:33;14.00;73.80
4584;DHT22;2304;47.606;12.186;2022-09-27T10:20:38;14.00;71.10
4584;DHT22;2304;47.606;12.186;2022-09-27T10:25:49;14.00;67.90
4584;DHT22;2304;47.606;12.186;2022-09-27T10:30:54;13.90;67.90
4584;DHT22;2304;47.606;12.186;2022-09-27T10:35:58;14.00;68.70
4584;DHT22;2304;47.606;12.186;2022-09-27T10:46:30;14.40;67.90
4584;DHT22;2304;47.606;12.186;2022-09-27T10:51:33;14.50;64.50
4584;DHT22;2304;47.606;12.186;2022-09-27T10:56:35;14.50;66.10
4584;DHT22;2304;47.606;12.186;2022-09-27T11:01:42;14.50;67.00
4584;DHT22;2304;47.606;12.186;2022-09-27T11:06:46;14.50;66.60
4584;DHT22;2304;47.606;12.186;2022-09-27T11:11:48;14.30;65.10
4584;DHT22;2304;47.606;12.186;2022-09-27T11:17:08;14.20;67.30
4584;DHT22;2304;47.606;12.186;2022-09-27T11:22:23;14.10;66.90
4584;DHT22;2304;47.606;12.186;2022-09-27T11:27:37;14.00;67.70
4584;DHT22;2304;47.606;12.186;2022-09-27T11:33:05;14.00;68.50
4584;DHT22;2304;47.606;12.186;2022-09-27T11:38:17;14.00;70.60
4584;DHT22;2304;47.606;12.186;2022-09-27T11:43:38;13.90;67.40
4584;DHT22;2304;47.606;12.186;2022-09-27T11:48:58;13.90;67.40
4584;DHT22;2304;47.606;12.186;2022-09-27T11:54:17;13.70;64.90
4584;DHT22;2304;47.606;12.186;2022-09-27T11:59:55;13.80;64.70
4584;DHT22;2304;47.606;12.186;2022-09-27T12:05:15;14.00;62.50
4584;DHT22;2304;47.606;12.186;2022-09-27T12:10:20;14.40;64.10
4584;DHT22;2304;47.606;12.186;2022-09-27T12:15:25;14.50;60.80
4584;DHT22;2304;47.606;12.186;2022-09-27T12:20:35;15.00;61.00
4584;DHT22;2304;47.606;12.186;2022-09-27T12:25:40;15.20;59.40
4584;DHT22;2304;47.606;12.186;2022-09-27T12:30:47;15.10;58.80
4584;DHT22;2304;47.606;12.186;2022-09-27T12:35:53;15.60;61.40
4584;DHT22;2304;47.606;12.186;2022-09-27T12:40:58;15.40;56.20
4584;DHT22;2304;47.606;12.186;2022-09-27T12:46:08;15.70;55.60
4584;DHT22;2304;47.606;12.186;2022-09-27T12:51:17;15.70;56.70
4584;DHT22;2304;47.606;12.186;2022-09-27T12:56:38;16.20;54.30
4584;DHT22;2304;47.606;12.186;2022-09-27T13:02:11;15.90;53.60
4584;DHT22;2304;47.606;12.186;2022-09-27T13:07:25;16.20;55.40
4584;DHT22;2304;47.606;12.186;2022-09-27T13:12:30;16.20;53.60
4584;DHT22;2304;47.606;12.186;2022-09-27T13:17:50;16.20;52.80
4584;DHT22;2304;47.606;12.186;2022-09-27T13:22:54;16.00;54.80
4584;DHT22;2304;47.606;12.186;2022-09-27T13:27:57;15.80;54.30
4584;DHT22;2304;47.606;12.186;2022-09-27T13:33:21;15.80;55.30
4584;DHT22;2304;47.606;12.186;2022-09-27T13:38:33;16.30;57.70
4584;DHT22;2304;47.606;12.186;2022-09-27T13:43:48;16.50;55.00
4584;DHT22;2304;47.606;12.186;2022-09-27T13:48:57;16.30;50.60
4584;DHT22;2304;47.606;12.186;2022-09-27T13:54:03;16.30;51.80
4584;DHT22;2304;47.606;12.186;2022-09-27T13:59:06;16.20;52.00
4584;DHT22;2304;47.606;12.186;2022-09-27T14:04:15;16.10;50.90
4584;DHT22;2304;47.606;12.186;2022-09-27T14:09:25;15.90;54.20
4584;DHT22;2304;47.606;12.186;2022-09-27T14:14:29;15.90;58.00
4584;DHT22;2304;47.606;12.186;2022-09-27T14:19:32;15.90;57.80
4584;DHT22;2304;47.606;12.186;2022-09-27T14:24:46;15.90;60.60
4584;DHT22;2304;47.606;12.186;2022-09-27T14:29:49;15.80;57.80
4584;DHT22;2304;47.606;12.186;2022-09-27T14:35:04;15.70;59.30
4584;DHT22;2304;47.606;12.186;2022-09-27T14:40:18;15.70;56.30
4584;DHT22;2304;47.606;12.186;2022-09-27T14:45:22;15.30;55.50
4584;DHT22;2304;47.606;12.186;2022-09-27T14:50:26;15.20;56.70
4584;DHT22;2304;47.606;12.186;2022-09-27T14:55:30;15.10;55.80
4584;DHT22;2304;47.606;12.186;2022-09-27T15:00:34;15.00;57.30
4584;DHT22;2304;47.606;12.186;2022-09-27T15:05:40;14.80;56.30
4584;DHT22;2304;47.606;12.186;2022-09-27T15:10:44;14.60;56.40
4584;DHT22;2304;47.606;12.186;2022-09-27T15:15:46;14.50;56.60
4584;DHT22;2304;47.606;12.186;2022-09-27T15:20:52;14.40;57.30
4584;DHT22;2304;47.606;12.186;2022-09-27T15:26:03;14.30;58.10
4584;DHT22;2304;47.606;12.186;2022-09-27T15:31:07;14.30;59.70
4584;DHT22;2304;47.606;12.186;2022-09-27T15:36:10;14.20;58.90
4584;DHT22;2304;47.606;12.186;2022-09-27T15:41:14;14.10;59.20
4584;DHT22;2304;47.606;12.186;2022-09-27T15:46:34;14.10;60.80
4584;DHT22;2304;47.606;12.186;2022-09-27T15:51:41;14.20;61.60
4584;DHT22;2304;47.606;12.186;2022-09-27T15:56:44;14.20;61.70
4584;DHT22;2304;47.606;12.186;2022-09-27T16:01:46;14.00;61.80
4584;DHT22;2304;47.606;12.186;2022-09-27T16:06:48;13.80;62.10
4584;DHT22;2304;47.606;12.186;2022-09-27T16:11:52;13.80;63.10
4584;DHT22;2304;47.606;12.186;2022-09-27T16:16:55;13.90;63.20
4584;DHT22;2304;47.606;12.186;2022-09-27T16:21:57;13.40;62.20
4584;DHT22;2304;47.606;12.186;2022-09-27T16:27:04;13.30;64.50
4584;DHT22;2304;47.606;12.186;2022-09-27T16:32:06;13.20;65.70
4584;DHT22;2304;47.606;12.186;2022-09-27T16:37:07;12.90;67.10
4584;DHT22;2304;47.606;12.186;2022-09-27T16:42:11;12.80;67.80
4584;DHT22;2304;47.606;12.186;2022-09-27T16:47:14;12.70;68.70
4584;DHT22;2304;47.606;12.186;2022-09-27T16:52:15;12.70;69.00
4584;DHT22;2304;47.606;12.186;2022-09-27T16:57:18;12.70;68.60
4584;DHT22;2304;47.606;12.186;2022-09-27T17:02:20;12.60;69.00
4584;DHT22;2304;47.606;12.186;2022-09-27T17:07:23;12.50;69.00
4584;DHT22;2304;47.606;12.186;2022-09-27T17:12:26;12.50;69.20
4584;DHT22;2304;47.606;12.186;2022-09-27T17:17:28;12.50;66.80
4584;DHT22;2304;47.606;12.186;2022-09-27T17:22:30;12.50;68.70
4584;DHT22;2304;47.606;12.186;2022-09-27T17:27:33;12.60;69.30
4584;DHT22;2304;47.606;12.186;2022-09-27T17:32:35;12.40;66.90
4584;DHT22;2304;47.606;12.186;2022-09-27T17:37:38;12.40;67.50
4584;DHT22;2304;47.606;12.186;2022-09-27T17:42:41;12.40;68.50
4584;DHT22;2304;47.606;12.186;2022-09-27T17:47:42;12.40;69.30
4584;DHT22;2304;47.606;12.186;2022-09-27T17:53:02;12.40;69.20
4584;DHT22;2304;47.606;12.186;2022-09-27T17:58:06;12.50;70.10
4584;DHT22;2304;47.606;12.186;2022-09-27T18:03:08;12.40;71.40
4584;DHT22;2304;47.606;12.186;2022-09-27T18:08:10;12.30;72.00
4584;DHT22;2304;47.606;12.186;2022-09-27T18:13:13;12.30;72.20
4584;DHT22;2304;47.606;12.186;2022-09-27T18:18:15;12.30;72.50
4584;DHT22;2304;47.606;12.186;2022-09-27T18:23:18;12.30;72.10
4584;DHT22;2304;47.606;12.186;2022-09-27T18:28:25;12.30;72.10
4584;DHT22;2304;47.606;12.186;2022-09-27T18:33:28;12.40;72.10
4584;DHT22;2304;47.606;12.186;2022-09-27T18:38:30;12.40;73.30
4584;DHT22;2304;47.606;12.186;2022-09-27T18:43:33;12.30;72.50
4584;DHT22;2304;47.606;12.186;2022-09-27T18:48:36;12.20;72.10
4584;DHT22;2304;47.606;12.186;2022-09-27T18:53:39;12.20;72.10
4584;DHT22;2304;47.606;12.186;2022-09-27T18:58:43;12.20;72.10
4584;DHT22;2304;47.606;12.186;2022-09-27T19:03:45;12.20;73.20
4584;DHT22;2304;47.606;12.186;2022-09-27T19:08:51;12.10;72.90
4584;DHT22;2304;47.606;12.186;2022-09-27T19:13:56;12.10;73.40
4584;DHT22;2304;47.606;12.186;2022-09-27T19:18:58;12.10;74.30
4584;DHT22;2304;47.606;12.186;2022-09-27T19:24:00;12.20;74.60
4584;DHT22;2304;47.606;12.186;2022-09-27T19:29:03;12.20;75.70
4584;DHT22;2304;47.606;12.186;2022-09-27T19:34:05;12.10;76.40
4584;DHT22;2304;47.606;12.186;2022-09-27T19:39:07;12.20;78.20
4584;DHT22;2304;47.606;12.186;2022-09-27T19:44:10;12.20;77.40
4584;DHT22;2304;47.606;12.186;2022-09-27T19:49:13;12.20;77.90
4584;DHT22;2304;47.606;12.186;2022-09-27T19:54:14;12.10;78.70
4584;DHT22;2304;47.606;12.186;2022-09-27T19:59:18;12.10;79.00
4584;DHT22;2304;47.606;12.186;2022-09-27T20:04:19;12.10;78.30
4584;DHT22;2304;47.606;12.186;2022-09-27T20:09:21;12.00;77.60
4584;DHT22;2304;47.606;12.186;2022-09-27T20:14:25;12.00;78.30
4584;DHT22;2304;47.606;12.186;2022-09-27T20:19:26;12.00;77.30
4584;DHT22;2304;47.606;12.186;2022-09-27T20:24:28;11.70;77.60
4584;DHT22;2304;47.606;12.186;2022-09-27T20:29:31;11.90;78.20
4584;DHT22;2304;47.606;12.186;2022-09-27T20:34:33;11.90;78.50
4584;DHT22;2304;47.606;12.186;2022-09-27T20:39:35;11.70;77.50
4584;DHT22;2304;47.606;12.186;2022-09-27T20:44:38;11.60;77.60
4584;DHT22;2304;47.606;12.186;2022-09-27T20:49:40;11.50;78.40
4584;DHT22;2304;47.606;12.186;2022-09-27T20:54:42;11.50;79.10
4584;DHT22;2304;47.606;12.186;2022-09-27T20:59:45;11.60;79.00
4584;DHT22;2304;47.606;12.186;2022-09-27T21:04:47;11.50;78.50
4584;DHT22;2304;47.606;12.186;2022-09-27T21:09:49;11.50;78.90
4584;DHT22;2304;47.606;12.186;2022-09-27T21:14:52;11.40;78.20
4584;DHT22;2304;47.606;12.186;2022-09-27T21:19:54;11.30;77.80
4584;DHT22;2304;47.606;12.186;2022-09-27T21:24:55;11.30;78.40
4584;DHT22;2304;47.606;12.186;2022-09-27T21:29:59;11.30;79.20
4584;DHT22;2304;47.606;12.186;2022-09-27T21:35:00;11.30;79.00
4584;DHT22;2304;47.606;12.186;2022-09-27T21:40:03;11.20;79.50
4584;DHT22;2304;47.606;12.186;2022-09-27T21:45:07;11.20;79.30
4584;DHT22;2304;47.606;12.186;2022-09-27T21:50:09;11.10;79.40
4584;DHT22;2304;47.606;12.186;2022-09-27T21:55:11;11.10;80.50
4584;DHT22;2304;47.606;12.186;2022-09-27T22:00:14;11.10;80.70
4584;DHT22;2304;47.606;12.186;2022-09-27T22:05:16;11.10;80.30
4584;DHT22;2304;47.606;12.186;2022-09-27T22:10:19;11.10;79.90
4584;DHT22;2304;47.606;12.186;2022-09-27T22:15:23;11.00;79.60
4584;DHT22;2304;47.606;12.186;2022-09-27T22:20:24;11.00;79.60
4584;DHT22;2304;47.606;12.186;2022-09-27T22:25:27;10.90;79.90
4584;DHT22;2304;47.606;12.186;2022-09-27T22:30:31;10.90;80.10
4584;DHT22;2304;47.606;12.186;2022-09-27T22:35:33;10.90;80.30
4584;DHT22;2304;47.606;12.186;2022-09-27T22:40:35;10.90;79.90
4584;DHT22;2304;47.606;12.186;2022-09-27T22:45:38;10.90;79.50
4584;DHT22;2304;47.606;12.186;2022-09-27T22:50:40;10.80;79.90
4584;DHT22;2304;47.606;12.186;2022-09-27T22:55:42;10.70;79.40
4584;DHT22;2304;47.606;12.186;2022-09-27T23:00:45;10.80;79.10
4584;DHT22;2304;47.606;12.186;2022-09-27T23:05:47;10.60;79.40
4584;DHT22;2304;47.606;12.186;2022-09-27T23:10:49;10.60;79.90
4584;DHT22;2304;47.606;12.186;2022-09-27T23:15:52;10.70;80.20
4584;DHT22;2304;47.606;12.186;2022-09-27T23:20:57;10.80;80.60
4584;DHT22;2304;47.606;12.186;2022-09-27T23:26:05;10.80;80.90
4584;DHT22;2304;47.606;12.186;2022-09-27T23:31:09;10.70;81.50
4584;DHT22;2304;47.606;12.186;2022-09-27T23:36:14;10.70;81.30
4584;DHT22;2304;47.606;12.186;2022-09-27T23:41:17;10.40;81.10
4584;DHT22;2304;47.606;12.186;2022-09-27T23:46:20;10.70;81.40
4584;DHT22;2304;47.606;12.186;2022-09-27T23:51:24;10.60;81.20
4584;DHT22;2304;47.606;12.186;2022-09-27T23:56:26;10.60;80.80
